sensor_id;sensor_type;location;lat;lon;timestamp;pressure;altitude;pressure_sealevel;temperature;humidity
70728;BME280;58314;47.722;17.652;2022-10-26T00:00:20;100896.88;;;9.15;100.00
70728;BME280;58314;47.722;17.652;2022-10-26T00:03:22;100909.09;;;9.19;100.00
70728;BME280;58314;47.722;17.652;2022-10-26T00:06:24;100907.34;;;9.18;100.00
70728;BME280;58314;47.722;17.652;2022-10-26T00:09:25;100908.22;;;9.18;100.00
70728;BME280;58314;47.722;17.652;2022-10-26T00:12:26;100900.91;;;9.27;100.00
70728;BME280;58314;47.722;17.652;2022-10-26T00:15:27;100901.38;;;9.39;100.00
70728;BME280;58314;47.722;17.652;2022-10-26T00:18:28;100898.06;;;9.33;100.00
70728;BME280;58314;47.722;17.652;2022-10-26T00:21:29;100900.34;;;9.43;100.00
70728;BME280;58314;47.722;17.652;2022-10-26T00:24:29;100908.22;;;9.45;100.00
70728;BME280;58314;47.722;17.652;2022-10-26T00:27:30;100905.19;;;9.31;100.00
70728;BME280;58314;47.722;17.652;2022-10-26T00:30:38;100914.06;;;9.28;100.00
70728;BME280;58314;47.722;17.652;2022-10-26T00:33:39;100903.44;;;9.30;100.00
70728;BME280;58314;47.722;17.652;2022-10-26T00:36:40;100901.66;;;9.30;100.00
70728;BME280;58314;47.722;17.652;2022-10-26T00:39:40;100897.25;;;9.31;100.00
70728;BME280;58314;47.722;17.652;2022-10-26T00:42:41;100895.38;;;9.34;100.00
70728;BME280;58314;47.722;17.652;2022-10-26T00:45:42;100909.50;;;9.33;100.00
70728;BME280;58314;47.722;17.652;2022-10-26T00:48:47;100904.44;;;9.27;100.00
70728;BME280;58314;47.722;17.652;2022-10-26T00:51:51;100901.84;;;9.26;100.00
70728;BME280;58314;47.722;17.652;2022-10-26T00:54:52;100903.66;;;9.23;100.00
70728;BME280;58314;47.722;17.652;2022-10-26T00:57:53;100901.91;;;9.22;100.00
70728;BME280;58314;47.722;17.652;2022-10-26T01:00:54;100898.53;;;9.19;100.00
70728;BME280;58314;47.722;17.652;2022-10-26T01:03:55;100900.19;;;9.21;100.00
70728;BME280;58314;47.722;17.652;2022-10-26T01:06:56;100897.91;;;9.11;100.00
70728;BME280;58314;47.722;17.652;2022-10-26T01:09:56;100900.44;;;9.14;100.00
70728;BME280;58314;47.722;17.652;2022-10-26T01:12:58;100900.22;;;9.20;100.00
70728;BME280;58314;47.722;17.652;2022-10-26T01:16:30;100895.94;;;9.17;100.00
70728;BME280;58314;47.722;17.652;2022-10-26T01:23:15;100891.91;;;9.05;100.00
70728;BME280;58314;47.722;17.652;2022-10-26T01:30:25;100875.75;;;8.88;100.00
70728;BME280;58314;47.722;17.652;2022-10-26T01:33:43;100877.47;;;8.89;100.00
70728;BME280;58314;47.722;17.652;2022-10-26T01:36:55;100876.50;;;8.92;100.00
70728;BME280;58314;47.722;17.652;2022-10-26T01:40:20;100880.00;;;8.92;100.00
70728;BME280;58314;47.722;17.652;2022-10-26T01:43:25;100882.22;;;8.78;100.00
70728;BME280;58314;47.722;17.652;2022-10-26T01:46:34;100883.19;;;8.75;100.00
70728;BME280;58314;47.722;17.652;2022-10-26T01:49:39;100877.22;;;8.69;100.00
70728;BME280;58314;47.722;17.652;2022-10-26T01:52:41;100880.59;;;8.74;100.00
70728;BME280;58314;47.722;17.652;2022-10-26T01:55:50;100873.78;;;8.66;100.00
70728;BME280;58314;47.722;17.652;2022-10-26T01:59:18;100865.63;;;8.74;100.00
70728;BME280;58314;47.722;17.652;2022-10-26T02:09:01;100870.31;;;8.64;100.00
70728;BME280;58314;47.722;17.652;2022-10-26T02:12:16;100865.25;;;8.58;100.00
70728;BME280;58314;47.722;17.652;2022-10-26T02:15:24;100871.63;;;8.51;100.00
70728;BME280;58314;47.722;17.652;2022-10-26T02:18:49;100872.50;;;8.50;100.00
70728;BME280;58314;47.722;17.652;2022-10-26T02:21:57;100868.97;;;8.51;100.00
70728;BME280;58314;47.722;17.652;2022-10-26T02:25:03;100869.06;;;8.48;100.00
70728;BME280;58314;47.722;17.652;2022-10-26T02:28:08;100871.75;;;8.46;100.00
70728;BME280;58314;47.722;17.652;2022-10-26T02:31:11;100877.19;;;8.40;100.00
70728;BME280;58314;47.722;17.652;2022-10-26T02:34:17;100872.03;;;8.36;100.00
70728;BME280;58314;47.722;17.652;2022-10-26T02:37:20;100870.41;;;8.32;100.00
70728;BME280;58314;47.722;17.652;2022-10-26T02:40:25;100874.84;;;8.29;100.00
70728;BME280;58314;47.722;17.652;2022-10-26T02:43:27;100879.94;;;8.36;100.00
70728;BME280;58314;47.722;17.652;2022-10-26T02:46:30;100877.19;;;8.40;100.00
70728;BME280;58314;47.722;17.652;2022-10-26T02:49:31;100873.97;;;8.29;100.00
70728;BME280;58314;47.722;17.652;2022-10-26T02:55:51;100872.56;;;8.17;100.00
70728;BME280;58314;47.722;17.652;2022-10-26T02:58:55;100878.75;;;8.16;100.00
70728;BME280;58314;47.722;17.652;2022-10-26T03:01:58;100864.91;;;8.08;100.00
70728;BME280;58314;47.722;17.652;2022-10-26T03:05:08;100873.66;;;8.10;100.00
70728;BME280;58314;47.722;17.652;2022-10-26T03:08:11;100873.25;;;8.24;100.00
70728;BME280;58314;47.722;17.652;2022-10-26T03:11:12;100876.84;;;8.21;100.00
70728;BME280;58314;47.722;17.652;2022-10-26T03:14:13;100874.09;;;8.24;100.00
70728;BME280;58314;47.722;17.652;2022-10-26T03:17:13;100873.22;;;8.25;100.00
70728;BME280;58314;47.722;17.652;2022-10-26T03:20:14;100867.13;;;8.23;100.00
70728;BME280;58314;47.722;17.652;2022-10-26T03:23:15;100867.44;;;8.13;100.00
70728;BME280;58314;47.722;17.652;2022-10-26T03:26:15;100870.19;;;8.08;100.00
70728;BME280;58314;47.722;17.652;2022-10-26T03:29:16;100869.53;;;8.00;100.00
70728;BME280;58314;47.722;17.652;2022-10-26T03:32:17;100871.47;;;7.93;100.00
70728;BME280;58314;47.722;17.652;2022-10-26T03:35:18;100871.78;;;7.82;100.00
70728;BME280;58314;47.722;17.652;2022-10-26T03:38:18;100876.31;;;7.77;100.00
70728;BME280;58314;47.722;17.652;2022-10-26T03:41:19;100877.16;;;7.78;100.00
70728;BME280;58314;47.722;17.652;2022-10-26T03:44:20;100875.56;;;7.72;100.00
70728;BME280;58314;47.722;17.652;2022-10-26T03:47:20;100879.19;;;7.68;100.00
70728;BME280;58314;47.722;17.652;2022-10-26T03:50:21;100878.44;;;7.63;100.00
70728;BME280;58314;47.722;17.652;2022-10-26T03:53:22;100879.22;;;7.66;100.00
70728;BME280;58314;47.722;17.652;2022-10-26T03:56:22;100886.16;;;7.69;100.00
70728;BME280;58314;47.722;17.652;2022-10-26T03:59:23;100891.38;;;7.72;100.00
70728;BME280;58314;47.722;17.652;2022-10-26T04:02:24;100886.16;;;7.69;100.00
70728;BME280;58314;47.722;17.652;2022-10-26T04:05:26;100895.09;;;7.63;100.00
70728;BME280;58314;47.722;17.652;2022-10-26T04:08:27;100898.53;;;7.67;100.00
70728;BME280;58314;47.722;17.652;2022-10-26T04:11:28;100894.13;;;7.67;100.00
70728;BME280;58314;47.722;17.652;2022-10-26T04:14:29;100886.31;;;7.64;100.00
70728;BME280;58314;47.722;17.652;2022-10-26T04:17:30;100881.97;;;7.62;100.00
70728;BME280;58314;47.722;17.652;2022-10-26T04:20:32;100883.66;;;7.66;100.00
70728;BME280;58314;47.722;17.652;2022-10-26T04:23:33;100891.38;;;7.72;100.00
70728;BME280;58314;47.722;17.652;2022-10-26T04:26:34;100889.56;;;7.74;100.00
70728;BME280;58314;47.722;17.652;2022-10-26T04:29:34;100882.66;;;7.70;100.00
70728;BME280;58314;47.722;17.652;2022-10-26T04:32:35;100883.72;;;7.63;100.00
70728;BME280;58314;47.722;17.652;2022-10-26T04:35:36;100884.53;;;7.65;100.00
70728;BME280;58314;47.722;17.652;2022-10-26T04:38:36;100878.22;;;7.70;100.00
70728;BME280;58314;47.722;17.652;2022-10-26T04:41:37;100870.38;;;7.69;100.00
70728;BME280;58314;47.722;17.652;2022-10-26T04:44:37;100875.53;;;7.73;100.00
70728;BME280;58314;47.722;17.652;2022-10-26T04:47:38;100871.25;;;7.69;100.00
70728;BME280;58314;47.722;17.652;2022-10-26T04:50:40;100877.56;;;7.64;100.00
70728;BME280;58314;47.722;17.652;2022-10-26T04:53:40;100875.31;;;7.48;100.00
70728;BME280;58314;47.722;17.652;2022-10-26T04:56:41;100875.31;;;7.48;100.00
70728;BME280;58314;47.722;17.652;2022-10-26T04:59:41;100869.50;;;7.35;100.00
70728;BME280;58314;47.722;17.652;2022-10-26T05:02:42;100865.31;;;7.27;100.00
70728;BME280;58314;47.722;17.652;2022-10-26T05:05:43;100868.88;;;7.26;100.00
70728;BME280;58314;47.722;17.652;2022-10-26T05:08:43;100864.56;;;7.22;100.00
70728;BME280;58314;47.722;17.652;2022-10-26T05:11:44;100866.28;;;7.24;100.00
70728;BME280;58314;47.722;17.652;2022-10-26T05:14:45;100859.19;;;7.26;100.00
70728;BME280;58314;47.722;17.652;2022-10-26T05:17:46;100853.31;;;7.15;100.00
70728;BME280;58314;47.722;17.652;2022-10-26T05:20:46;100854.13;;;7.19;100.00
70728;BME280;58314;47.722;17.652;2022-10-26T05:23:50;100855.75;;;7.24;100.00
70728;BME280;58314;47.722;17.652;2022-10-26T05:26:53;100855.72;;;7.26;100.00
70728;BME280;58314;47.722;17.652;2022-10-26T05:29:53;100869.72;;;7.26;100.00
70728;BME280;58314;47.722;17.652;2022-10-26T05:32:59;100872.09;;;7.37;100.00
70728;BME280;58314;47.722;17.652;2022-10-26T05:36:00;100877.56;;;7.29;100.00
70728;BME280;58314;47.722;17.652;2022-10-26T05:39:00;100878.50;;;7.25;100.00
70728;BME280;58314;47.722;17.652;2022-10-26T05:42:01;100875.81;;;7.28;100.00
70728;BME280;58314;47.722;17.652;2022-10-26T05:45:01;100870.44;;;7.33;100.00
70728;BME280;58314;47.722;17.652;2022-10-26T05:48:03;100874.69;;;7.39;100.00
70728;BME280;58314;47.722;17.652;2022-10-26T05:51:04;100874.59;;;7.42;100.00
70728;BME280;58314;47.722;17.652;2022-10-26T05:54:05;100883.88;;;7.57;100.00
70728;BME280;58314;47.722;17.652;2022-10-26T05:57:10;100894.28;;;7.61;100.00
70728;BME280;58314;47.722;17.652;2022-10-26T06:00:16;100907.50;;;7.60;100.00
70728;BME280;58314;47.722;17.652;2022-10-26T06:06:52;100905.69;;;7.62;100.00
70728;BME280;58314;47.722;17.652;2022-10-26T06:09:54;100914.28;;;7.68;100.00
70728;BME280;58314;47.722;17.652;2022-10-26T06:12:55;100924.34;;;7.87;100.00
70728;BME280;58314;47.722;17.652;2022-10-26T06:16:14;100934.72;;;7.93;100.00
70728;BME280;58314;47.722;17.652;2022-10-26T06:22:54;100929.03;;;8.08;100.00
70728;BME280;58314;47.722;17.652;2022-10-26T06:26:32;100935.03;;;8.14;100.00
70728;BME280;58314;47.722;17.652;2022-10-26T06:32:57;100927.56;;;8.29;100.00
70728;BME280;58314;47.722;17.652;2022-10-26T06:36:21;100935.13;;;8.42;100.00
70728;BME280;58314;47.722;17.652;2022-10-26T06:39:24;100933.34;;;8.44;100.00
70728;BME280;58314;47.722;17.652;2022-10-26T06:42:30;100932.28;;;8.51;100.00
70728;BME280;58314;47.722;17.652;2022-10-26T06:45:31;100935.59;;;8.58;100.00
70728;BME280;58314;47.722;17.652;2022-10-26T06:48:47;100946.75;;;8.66;100.00
70728;BME280;58314;47.722;17.652;2022-10-26T06:55:14;100942.22;;;9.01;100.00
70728;BME280;58314;47.722;17.652;2022-10-26T06:58:20;100950.59;;;9.14;100.00
70728;BME280;58314;47.722;17.652;2022-10-26T07:01:22;100944.75;;;9.32;100.00
70728;BME280;58314;47.722;17.652;2022-10-26T07:04:23;100948.50;;;9.52;100.00
70728;BME280;58314;47.722;17.652;2022-10-26T07:07:28;100940.94;;;9.68;100.00
70728;BME280;58314;47.722;17.652;2022-10-26T07:10:29;100942.06;;;9.86;100.00
70728;BME280;58314;47.722;17.652;2022-10-26T07:13:30;100946.81;;;10.01;100.00
70728;BME280;58314;47.722;17.652;2022-10-26T07:16:30;100952.28;;;10.22;100.00
70728;BME280;58314;47.722;17.652;2022-10-26T07:19:31;100956.41;;;10.29;100.00
70728;BME280;58314;47.722;17.652;2022-10-26T07:22:32;100955.91;;;10.44;100.00
70728;BME280;58314;47.722;17.652;2022-10-26T07:25:34;100960.69;;;10.58;100.00
70728;BME280;58314;47.722;17.652;2022-10-26T07:28:35;100953.91;;;10.74;100.00
70728;BME280;58314;47.722;17.652;2022-10-26T07:31:36;100951.25;;;10.97;100.00
70728;BME280;58314;47.722;17.652;2022-10-26T07:34:36;100961.16;;;11.15;100.00
70728;BME280;58314;47.722;17.652;2022-10-26T07:37:37;100958.34;;;11.40;100.00
70728;BME280;58314;47.722;17.652;2022-10-26T07:40:37;100964.44;;;11.64;100.00
70728;BME280;58314;47.722;17.652;2022-10-26T07:43:38;100962.38;;;11.93;100.00
70728;BME280;58314;47.722;17.652;2022-10-26T07:46:39;100968.34;;;12.19;100.00
70728;BME280;58314;47.722;17.652;2022-10-26T07:49:39;100968.13;;;12.44;100.00
70728;BME280;58314;47.722;17.652;2022-10-26T07:52:40;100970.53;;;12.69;100.00
70728;BME280;58314;47.722;17.652;2022-10-26T07:55:41;100969.38;;;12.94;100.00
70728;BME280;58314;47.722;17.652;2022-10-26T07:58:41;100968.13;;;13.20;100.00
70728;BME280;58314;47.722;17.652;2022-10-26T08:01:46;100958.94;;;13.46;100.00
70728;BME280;58314;47.722;17.652;2022-10-26T08:04:47;100964.75;;;13.72;100.00
70728;BME280;58314;47.722;17.652;2022-10-26T08:07:47;100964.97;;;13.85;100.00
70728;BME280;58314;47.722;17.652;2022-10-26T08:10:48;100966.31;;;13.76;100.00
70728;BME280;58314;47.722;17.652;2022-10-26T08:13:52;100963.50;;;13.97;100.00
70728;BME280;58314;47.722;17.652;2022-10-26T08:16:53;100957.78;;;14.22;100.00
70728;BME280;58314;47.722;17.652;2022-10-26T08:19:54;100966.06;;;14.16;100.00
70728;BME280;58314;47.722;17.652;2022-10-26T08:22:58;100964.91;;;14.04;100.00
70728;BME280;58314;47.722;17.652;2022-10-26T08:26:00;100971.69;;;14.09;100.00
70728;BME280;58314;47.722;17.652;2022-10-26T08:29:01;100965.88;;;14.36;100.00
70728;BME280;58314;47.722;17.652;2022-10-26T08:32:01;100964.59;;;14.10;100.00
70728;BME280;58314;47.722;17.652;2022-10-26T08:35:02;100971.34;;;14.33;100.00
70728;BME280;58314;47.722;17.652;2022-10-26T08:38:03;100973.00;;;14.36;100.00
70728;BME280;58314;47.722;17.652;2022-10-26T08:41:07;100979.47;;;14.47;100.00
70728;BME280;58314;47.722;17.652;2022-10-26T08:44:31;100973.34;;;14.63;100.00
70728;BME280;58314;47.722;17.652;2022-10-26T08:47:39;100983.47;;;15.05;100.00
70728;BME280;58314;47.722;17.652;2022-10-26T08:50:55;100978.47;;;14.99;100.00
70728;BME280;58314;47.722;17.652;2022-10-26T08:54:11;100990.25;;;15.59;100.00
70728;BME280;58314;47.722;17.652;2022-10-26T08:57:21;100988.53;;;14.94;100.00
70728;BME280;58314;47.722;17.652;2022-10-26T09:00:25;100994.72;;;15.27;100.00
70728;BME280;58314;47.722;17.652;2022-10-26T09:03:28;100987.66;;;14.94;100.00
70728;BME280;58314;47.722;17.652;2022-10-26T09:06:50;100993.16;;;14.91;100.00
70728;BME280;58314;47.722;17.652;2022-10-26T09:10:19;100998.84;;;15.00;100.00
70728;BME280;58314;47.722;17.652;2022-10-26T09:17:29;100989.81;;;15.19;100.00
70728;BME280;58314;47.722;17.652;2022-10-26T09:23:55;101003.88;;;14.73;100.00
70728;BME280;58314;47.722;17.652;2022-10-26T09:30:13;101016.50;;;14.69;100.00
70728;BME280;58314;47.722;17.652;2022-10-26T09:33:17;101017.53;;;14.32;100.00
70728;BME280;58314;47.722;17.652;2022-10-26T09:36:21;101023.28;;;14.24;100.00
70728;BME280;58314;47.722;17.652;2022-10-26T09:40:03;101021.84;;;14.52;100.00
70728;BME280;58314;47.722;17.652;2022-10-26T09:43:18;101029.44;;;14.42;100.00
70728;BME280;58314;47.722;17.652;2022-10-26T09:46:24;101022.16;;;14.46;100.00
70728;BME280;58314;47.722;17.652;2022-10-26T09:49:55;101028.91;;;14.36;100.00
70728;BME280;58314;47.722;17.652;2022-10-26T09:52:58;101022.06;;;14.98;100.00
70728;BME280;58314;47.722;17.652;2022-10-26T09:56:10;101020.69;;;15.55;100.00
70728;BME280;58314;47.722;17.652;2022-10-26T09:59:11;101006.91;;;15.62;100.00
70728;BME280;58314;47.722;17.652;2022-10-26T10:05:34;101018.69;;;15.58;98.08
70728;BME280;58314;47.722;17.652;2022-10-26T10:08:35;101011.22;;;15.01;100.00
70728;BME280;58314;47.722;17.652;2022-10-26T10:11:58;101014.41;;;15.08;100.00
70728;BME280;58314;47.722;17.652;2022-10-26T10:14:58;101006.75;;;15.34;100.00
70728;BME280;58314;47.722;17.652;2022-10-26T10:17:59;101016.03;;;15.42;100.00
70728;BME280;58314;47.722;17.652;2022-10-26T10:21:00;101020.44;;;16.06;97.94
70728;BME280;58314;47.722;17.652;2022-10-26T10:24:01;101017.06;;;16.18;95.22
70728;BME280;58314;47.722;17.652;2022-10-26T10:30:34;101021.66;;;16.45;95.01
70728;BME280;58314;47.722;17.652;2022-10-26T10:33:39;101015.91;;;16.36;94.75
70728;BME280;58314;47.722;17.652;2022-10-26T10:36:40;101022.75;;;16.12;95.56
70728;BME280;58314;47.722;17.652;2022-10-26T10:39:41;101009.81;;;16.34;94.93
70728;BME280;58314;47.722;17.652;2022-10-26T10:42:43;100999.75;;;15.79;98.29
70728;BME280;58314;47.722;17.652;2022-10-26T10:45:50;101018.66;;;16.21;95.53
70728;BME280;58314;47.722;17.652;2022-10-26T10:49:01;101018.66;;;16.21;95.68
70728;BME280;58314;47.722;17.652;2022-10-26T10:52:03;101017.19;;;16.74;92.78
70728;BME280;58314;47.722;17.652;2022-10-26T10:58:23;101021.91;;;16.11;96.26
70728;BME280;58314;47.722;17.652;2022-10-26T11:01:32;101029.63;;;15.86;97.70
70728;BME280;58314;47.722;17.652;2022-10-26T11:08:08;101013.75;;;17.01;92.14
70728;BME280;58314;47.722;17.652;2022-10-26T11:11:16;101017.41;;;17.00;90.21
70728;BME280;58314;47.722;17.652;2022-10-26T11:14:25;101027.16;;;16.27;94.70
70728;BME280;58314;47.722;17.652;2022-10-26T11:17:36;101023.81;;;16.09;96.64
70728;BME280;58314;47.722;17.652;2022-10-26T11:20:44;101028.38;;;15.45;100.00
70728;BME280;58314;47.722;17.652;2022-10-26T11:24:09;101028.56;;;15.72;100.00
70728;BME280;58314;47.722;17.652;2022-10-26T11:27:16;101022.91;;;16.09;97.80
70728;BME280;58314;47.722;17.652;2022-10-26T11:30:19;101020.72;;;17.18;90.33
70728;BME280;58314;47.722;17.652;2022-10-26T11:33:25;101017.84;;;17.62;88.92
70728;BME280;58314;47.722;17.652;2022-10-26T11:36:28;101011.28;;;16.83;89.35
70728;BME280;58314;47.722;17.652;2022-10-26T11:39:43;101014.72;;;17.68;85.90
70728;BME280;58314;47.722;17.652;2022-10-26T11:42:55;101006.66;;;17.83;85.81
70728;BME280;58314;47.722;17.652;2022-10-26T11:46:04;101000.13;;;18.53;81.29
70728;BME280;58314;47.722;17.652;2022-10-26T11:49:23;101011.13;;;18.22;80.15
70728;BME280;58314;47.722;17.652;2022-10-26T11:52:33;101014.19;;;17.36;87.76
70728;BME280;58314;47.722;17.652;2022-10-26T11:55:38;101025.41;;;16.85;89.29
70728;BME280;58314;47.722;17.652;2022-10-26T11:58:39;101026.03;;;16.31;91.84
70728;BME280;58314;47.722;17.652;2022-10-26T12:01:41;101034.69;;;16.21;94.21
70728;BME280;58314;47.722;17.652;2022-10-26T12:04:44;101031.75;;;15.95;95.13
70728;BME280;58314;47.722;17.652;2022-10-26T12:07:49;101020.34;;;15.77;95.98
70728;BME280;58314;47.722;17.652;2022-10-26T12:14:17;101024.47;;;15.51;98.41
70728;BME280;58314;47.722;17.652;2022-10-26T12:17:41;101028.09;;;15.34;99.26
70728;BME280;58314;47.722;17.652;2022-10-26T12:27:30;101024.91;;;15.59;99.05
70728;BME280;58314;47.722;17.652;2022-10-26T12:30:34;101024.41;;;15.52;100.00
70728;BME280;58314;47.722;17.652;2022-10-26T12:33:49;101027.16;;;15.35;100.00
70728;BME280;58314;47.722;17.652;2022-10-26T12:43:37;101035.47;;;15.44;100.00
70728;BME280;58314;47.722;17.652;2022-10-26T12:46:39;101028.09;;;15.50;100.00
70728;BME280;58314;47.722;17.652;2022-10-26T12:53:09;101038.16;;;15.29;100.00
70728;BME280;58314;47.722;17.652;2022-10-26T12:56:16;101042.03;;;15.23;100.00
70728;BME280;58314;47.722;17.652;2022-10-26T12:59:39;101044.84;;;15.36;100.00
70728;BME280;58314;47.722;17.652;2022-10-26T13:03:20;101039.97;;;15.12;100.00
70728;BME280;58314;47.722;17.652;2022-10-26T13:13:20;101036.22;;;14.83;100.00
70728;BME280;58314;47.722;17.652;2022-10-26T13:16:24;101040.44;;;14.87;100.00
70728;BME280;58314;47.722;17.652;2022-10-26T13:19:31;101047.06;;;14.96;100.00
70728;BME280;58314;47.722;17.652;2022-10-26T13:22:32;101051.00;;;14.88;100.00
70728;BME280;58314;47.722;17.652;2022-10-26T13:25:33;101054.50;;;14.73;100.00
70728;BME280;58314;47.722;17.652;2022-10-26T13:34:41;101052.97;;;14.85;100.00
70728;BME280;58314;47.722;17.652;2022-10-26T13:37:45;101044.00;;;14.70;100.00
70728;BME280;58314;47.722;17.652;2022-10-26T13:40:47;101050.34;;;14.67;100.00
70728;BME280;58314;47.722;17.652;2022-10-26T13:43:50;101052.88;;;14.71;100.00
70728;BME280;58314;47.722;17.652;2022-10-26T13:46:58;101056.91;;;14.78;100.00
70728;BME280;58314;47.722;17.652;2022-10-26T13:50:06;101066.09;;;14.72;100.00
70728;BME280;58314;47.722;17.652;2022-10-26T13:53:53;101058.50;;;14.64;100.00
70728;BME280;58314;47.722;17.652;2022-10-26T13:56:39;101057.00;;;14.76;100.00
70728;BME280;58314;47.722;17.652;2022-10-26T13:59:44;101064.94;;;14.94;100.00
70728;BME280;58314;47.722;17.652;2022-10-26T14:02:45;101063.88;;;15.14;100.00
70728;BME280;58314;47.722;17.652;2022-10-26T14:05:47;101067.09;;;15.03;100.00
70728;BME280;58314;47.722;17.652;2022-10-26T14:08:51;101071.16;;;14.77;100.00
70728;BME280;58314;47.722;17.652;2022-10-26T14:11:55;101065.91;;;14.75;100.00
70728;BME280;58314;47.722;17.652;2022-10-26T14:15:05;101068.78;;;14.72;100.00
70728;BME280;58314;47.722;17.652;2022-10-26T14:18:17;101074.63;;;14.61;100.00
70728;BME280;58314;47.722;17.652;2022-10-26T14:21:21;101067.59;;;14.43;100.00
70728;BME280;58314;47.722;17.652;2022-10-26T14:27:31;101073.28;;;14.53;100.00
70728;BME280;58314;47.722;17.652;2022-10-26T14:30:32;101070.13;;;14.63;100.00
70728;BME280;58314;47.722;17.652;2022-10-26T14:33:33;101077.69;;;14.54;100.00
70728;BME280;58314;47.722;17.652;2022-10-26T14:39:45;101080.03;;;14.42;100.00
70728;BME280;58314;47.722;17.652;2022-10-26T14:42:48;101074.00;;;14.39;100.00
70728;BME280;58314;47.722;17.652;2022-10-26T14:45:51;101079.31;;;14.39;100.00
70728;BME280;58314;47.722;17.652;2022-10-26T14:48:55;101087.09;;;14.26;100.00
70728;BME280;58314;47.722;17.652;2022-10-26T14:51:58;101081.19;;;14.19;100.00
70728;BME280;58314;47.722;17.652;2022-10-26T14:55:02;101079.66;;;14.15;100.00
70728;BME280;58314;47.722;17.652;2022-10-26T14:58:22;101085.13;;;14.12;100.00
70728;BME280;58314;47.722;17.652;2022-10-26T15:01:26;101084.34;;;14.10;100.00
70728;BME280;58314;47.722;17.652;2022-10-26T15:04:35;101082.59;;;14.09;100.00
70728;BME280;58314;47.722;17.652;2022-10-26T15:07:37;101090.50;;;14.10;100.00
70728;BME280;58314;47.722;17.652;2022-10-26T15:13:41;101088.06;;;14.06;100.00
70728;BME280;58314;47.722;17.652;2022-10-26T15:16:50;101081.69;;;14.10;100.00
70728;BME280;58314;47.722;17.652;2022-10-26T15:19:53;101088.78;;;14.09;100.00
70728;BME280;58314;47.722;17.652;2022-10-26T15:22:57;101100.59;;;14.04;100.00
70728;BME280;58314;47.722;17.652;2022-10-26T15:26:00;101100.31;;;14.10;100.00
70728;BME280;58314;47.722;17.652;2022-10-26T15:29:01;101098.06;;;14.01;100.00
70728;BME280;58314;47.722;17.652;2022-10-26T15:32:03;101101.97;;;13.93;100.00
70728;BME280;58314;47.722;17.652;2022-10-26T15:35:25;101109.09;;;13.93;100.00
70728;BME280;58314;47.722;17.652;2022-10-26T15:38:27;101109.97;;;13.93;100.00
70728;BME280;58314;47.722;17.652;2022-10-26T15:41:32;101115.28;;;13.93;100.00
70728;BME280;58314;47.722;17.652;2022-10-26T15:44:34;101119.69;;;13.94;100.00
70728;BME280;58314;47.722;17.652;2022-10-26T15:47:35;101123.25;;;13.93;100.00
70728;BME280;58314;47.722;17.652;2022-10-26T15:50:36;101137.44;;;13.94;100.00
70728;BME280;58314;47.722;17.652;2022-10-26T15:53:36;101137.81;;;13.86;100.00
70728;BME280;58314;47.722;17.652;2022-10-26T15:56:37;101139.69;;;13.84;100.00
70728;BME280;58314;47.722;17.652;2022-10-26T15:59:39;101137.16;;;13.81;100.00
70728;BME280;58314;47.722;17.652;2022-10-26T16:02:41;101134.50;;;13.81;100.00
70728;BME280;58314;47.722;17.652;2022-10-26T16:05:42;101125.59;;;13.82;100.00
70728;BME280;58314;47.722;17.652;2022-10-26T16:08:51;101142.63;;;13.78;100.00
70728;BME280;58314;47.722;17.652;2022-10-26T16:11:52;101143.72;;;13.74;100.00
70728;BME280;58314;47.722;17.652;2022-10-26T16:14:53;101144.16;;;13.65;100.00
70728;BME280;58314;47.722;17.652;2022-10-26T16:17:54;101147.94;;;13.59;100.00
70728;BME280;58314;47.722;17.652;2022-10-26T16:20:55;101145.53;;;13.54;100.00
70728;BME280;58314;47.722;17.652;2022-10-26T16:23:56;101143.84;;;13.52;100.00
70728;BME280;58314;47.722;17.652;2022-10-26T16:26:58;101153.56;;;13.53;100.00
70728;BME280;58314;47.722;17.652;2022-10-26T16:29:59;101154.06;;;13.42;100.00
70728;BME280;58314;47.722;17.652;2022-10-26T16:33:01;101155.19;;;13.36;100.00
70728;BME280;58314;47.722;17.652;2022-10-26T16:36:03;101151.81;;;13.33;100.00
70728;BME280;58314;47.722;17.652;2022-10-26T16:39:05;101155.44;;;13.32;100.00
70728;BME280;58314;47.722;17.652;2022-10-26T16:42:07;101154.75;;;13.27;100.00
70728;BME280;58314;47.722;17.652;2022-10-26T16:45:10;101161.09;;;13.23;100.00
70728;BME280;58314;47.722;17.652;2022-10-26T16:48:12;101159.47;;;13.20;100.00
70728;BME280;58314;47.722;17.652;2022-10-26T16:51:21;101170.28;;;13.15;100.00
70728;BME280;58314;47.722;17.652;2022-10-26T16:54:22;101169.56;;;13.12;100.00
70728;BME280;58314;47.722;17.652;2022-10-26T16:57:25;101172.16;;;13.13;100.00
70728;BME280;58314;47.722;17.652;2022-10-26T17:00:29;101180.31;;;13.09;100.00
70728;BME280;58314;47.722;17.652;2022-10-26T17:03:33;101188.78;;;12.98;100.00
70728;BME280;58314;47.722;17.652;2022-10-26T17:06:34;101188.09;;;12.93;100.00
70728;BME280;58314;47.722;17.652;2022-10-26T17:09:36;101176.63;;;12.92;100.00
70728;BME280;58314;47.722;17.652;2022-10-26T17:12:38;101185.38;;;12.94;100.00
70728;BME280;58314;47.722;17.652;2022-10-26T17:15:40;101183.47;;;12.98;100.00
70728;BME280;58314;47.722;17.652;2022-10-26T17:18:42;101185.19;;;12.99;100.00
70728;BME280;58314;47.722;17.652;2022-10-26T17:21:48;101183.94;;;12.87;100.00
70728;BME280;58314;47.722;17.652;2022-10-26T17:24:50;101197.03;;;12.92;100.00